Wetterdaten: aktuell Donnerstag, 25.07.2024 14:40
Datum Zeit Lufttemp. Wassertemp. Feuchte Luftdruck Regen Wind Richtung Richtung Windben
25.07.2024 14:40 29,7 C 27,2 C 51 % 1008,0 hPa 0,0 l/m 4,9 kts (2 Bft) SO 129 7,7 kts (3 Bft)
25.07.2024 14:39 29,7 C 27,2 C 55 % 1008,1 hPa 0,0 l/m 4,8 kts (2 Bft) SO 146 8,6 kts (3 Bft)
25.07.2024 14:38 29,7 C 27,2 C 54 % 1008,1 hPa 0,0 l/m 5,2 kts (2 Bft) S-SO 148 7,7 kts (3 Bft)
25.07.2024 14:37 29,6 C 27,2 C 53 % 1008,1 hPa 0,0 l/m 5,6 kts (2 Bft) O-SO 113 8,6 kts (3 Bft)
25.07.2024 14:36 29,6 C 27,2 C 53 % 1008,2 hPa 0,0 l/m 6,1 kts (2 Bft) SO 129 8,6 kts (3 Bft)
25.07.2024 14:35 29,6 C 27,2 C 53 % 1008,2 hPa 0,0 l/m 6,6 kts (2 Bft) SO 128 9,6 kts (3 Bft)
25.07.2024 14:34 29,7 C 27,2 C 54 % 1008,2 hPa 0,0 l/m 4,9 kts (2 Bft) SO 128 8,6 kts (3 Bft)
25.07.2024 14:33 29,7 C 27,2 C 54 % 1008,2 hPa 0,0 l/m 5,9 kts (2 Bft) S-SO 163 10,5 kts (3 Bft)
25.07.2024 14:32 29,6 C 27,2 C 55 % 1008,2 hPa 0,0 l/m 4,6 kts (2 Bft) S-SO 151 7,7 kts (3 Bft)
25.07.2024 14:31 29,6 C 27,2 C 54 % 1008,2 hPa 0,0 l/m 4,7 kts (2 Bft) S-SO 163 6,7 kts (2 Bft)
25.07.2024 14:30 29,6 C 27,2 C 54 % 1008,2 hPa 0,0 l/m 5,1 kts (2 Bft) O-SO 109 7,7 kts (3 Bft)
25.07.2024 14:29 29,5 C 27,2 C 54 % 1008,2 hPa 0,0 l/m 4,5 kts (2 Bft) O-SO 119 6,7 kts (2 Bft)
25.07.2024 14:28 29,4 C 27,2 C 53 % 1008,2 hPa 0,0 l/m 3,7 kts (2 Bft) O-SO 115 6,7 kts (2 Bft)
25.07.2024 14:27 29,4 C 27,2 C 53 % 1008,2 hPa 0,0 l/m 3,1 kts (2 Bft) S-SO 160 5,7 kts (2 Bft)
25.07.2024 14:26 29,3 C 27,2 C 52 % 1008,3 hPa 0,0 l/m 2,9 kts (2 Bft) S 171 4,8 kts (2 Bft)
25.07.2024 14:25 29,3 C 27,2 C 53 % 1008,3 hPa 0,0 l/m 4,8 kts (2 Bft) S 171 7,7 kts (3 Bft)
25.07.2024 14:24 29,3 C 27,2 C 52 % 1008,3 hPa 0,0 l/m 5,4 kts (2 Bft) S-SO 151 7,7 kts (3 Bft)
25.07.2024 14:23 29,4 C 27,2 C 53 % 1008,3 hPa 0,0 l/m 6,2 kts (2 Bft) S 178 10,5 kts (3 Bft)
25.07.2024 14:22 29,4 C 27,2 C 53 % 1008,4 hPa 0,0 l/m 6,4 kts (2 Bft) S-SO 150 9,6 kts (3 Bft)
25.07.2024 14:21 29,4 C 27,2 C 52 % 1008,4 hPa 0,0 l/m 5,7 kts (2 Bft) S-SO 162 7,7 kts (3 Bft)
25.07.2024 14:20 29,4 C 27,2 C 54 % 1008,4 hPa 0,0 l/m 6,2 kts (2 Bft) S 171 8,6 kts (3 Bft)
25.07.2024 14:19 29,5 C 27,2 C 56 % 1008,4 hPa 0,0 l/m 4,3 kts (2 Bft) SO 128 7,7 kts (3 Bft)
25.07.2024 14:18 29,5 C 27,2 C 53 % 1008,4 hPa 0,0 l/m 7,0 kts (3 Bft) SO 143 9,6 kts (3 Bft)
25.07.2024 14:17 29,5 C 27,2 C 53 % 1008,5 hPa 0,0 l/m 7,2 kts (3 Bft) O-SO 115 9,6 kts (3 Bft)
25.07.2024 14:16 29,6 C 27,2 C 54 % 1008,5 hPa 0,0 l/m 6,9 kts (3 Bft) S-SO 154 10,5 kts (3 Bft)
25.07.2024 14:15 29,6 C 27,2 C 53 % 1008,5 hPa 0,0 l/m 6,0 kts (2 Bft) O-SO 112 10,5 kts (3 Bft)
25.07.2024 14:14 29,7 C 27,2 C 54 % 1008,5 hPa 0,0 l/m 5,1 kts (2 Bft) SO 124 8,6 kts (3 Bft)
25.07.2024 14:13 29,7 C 27,2 C 53 % 1008,5 hPa 0,0 l/m 7,0 kts (3 Bft) SO 132 10,5 kts (3 Bft)
25.07.2024 14:12 29,7 C 27,2 C 52 % 1008,5 hPa 0,0 l/m 5,6 kts (2 Bft) O 98 8,6 kts (3 Bft)
25.07.2024 14:11 29,7 C 27,2 C 54 % 1008,5 hPa 0,0 l/m 4,5 kts (2 Bft) O 94 7,7 kts (3 Bft)
25.07.2024 14:10 29,7 C 27,2 C 52 % 1008,6 hPa 0,0 l/m 4,5 kts (2 Bft) S-SO 151 7,7 kts (3 Bft)
25.07.2024 14:09 29,7 C 27,2 C 53 % 1008,5 hPa 0,0 l/m 2,2 kts (1 Bft) SO 143 4,8 kts (2 Bft)
25.07.2024 14:08 29,6 C 27,2 C 53 % 1008,5 hPa 0,0 l/m 2,3 kts (1 Bft) S-SO 163 5,7 kts (2 Bft)
25.07.2024 14:07 29,6 C 27,2 C 53 % 1008,6 hPa 0,0 l/m 1,2 kts (1 Bft) S-SO 155 2,9 kts (1 Bft)
25.07.2024 14:06 29,6 C 27,2 C 52 % 1008,6 hPa 0,0 l/m 2,3 kts (1 Bft) S 169 4,8 kts (2 Bft)
25.07.2024 14:05 29,6 C 27,2 C 53 % 1008,6 hPa 0,0 l/m 2,5 kts (1 Bft) SO 134 3,8 kts (2 Bft)
25.07.2024 14:04 29,6 C 27,2 C 52 % 1008,6 hPa 0,0 l/m 2,6 kts (1 Bft) S-SO 163 5,7 kts (2 Bft)
25.07.2024 14:03 29,6 C 27,2 C 53 % 1008,6 hPa 0,0 l/m 3,4 kts (2 Bft) S-SO 165 5,7 kts (2 Bft)
25.07.2024 14:02 29,6 C 27,2 C 52 % 1008,6 hPa 0,0 l/m 1,6 kts (1 Bft) SO 131 4,8 kts (2 Bft)
25.07.2024 14:01 29,6 C 27,2 C 52 % 1008,6 hPa 0,0 l/m 2,1 kts (1 Bft) SO 142 3,8 kts (2 Bft)
25.07.2024 14:00 29,7 C 27,2 C 52 % 1008,7 hPa 0,0 l/m 3,0 kts (2 Bft) S-SO 150 6,7 kts (2 Bft)
25.07.2024 13:59 29,7 C 27,2 C 52 % 1008,7 hPa 0,0 l/m 3,7 kts (2 Bft) S-SO 167 6,7 kts (2 Bft)
25.07.2024 13:58 29,7 C 27,2 C 51 % 1008,7 hPa 0,0 l/m 5,3 kts (2 Bft) S-SO 157 7,7 kts (3 Bft)
25.07.2024 13:57 29,7 C 27,2 C 51 % 1008,7 hPa 0,0 l/m 3,3 kts (2 Bft) SO 131 6,7 kts (2 Bft)
25.07.2024 13:56 29,6 C 27,2 C 52 % 1008,7 hPa 0,0 l/m 1,8 kts (1 Bft) SO 125 3,8 kts (2 Bft)
25.07.2024 13:55 29,6 C 27,2 C 50 % 1008,7 hPa 0,0 l/m 0,4 kts (0 Bft) S-SO 168 1,9 kts (1 Bft)
25.07.2024 13:54 29,4 C 27,2 C 50 % 1008,8 hPa 0,0 l/m 0,2 kts (0 Bft) O-SO 112 1,0 kts (1 Bft)
25.07.2024 13:53 29,4 C 27,2 C 49 % 1008,7 hPa 0,0 l/m 1,2 kts (1 Bft) O-SO 108 1,9 kts (1 Bft)
25.07.2024 13:52 29,4 C 27,2 C 50 % 1008,8 hPa 0,0 l/m 0,2 kts (0 Bft) O-SO 114 1,0 kts (1 Bft)
25.07.2024 13:51 29,4 C 27,2 C 49 % 1008,8 hPa 0,0 l/m 1,5 kts (1 Bft) O 99 2,9 kts (1 Bft)
25.07.2024 13:50 29,3 C 27,2 C 49 % 1008,9 hPa 0,0 l/m 1,3 kts (1 Bft) SO 131 1,9 kts (1 Bft)
25.07.2024 13:49 29,3 C 27,2 C 50 % 1008,9 hPa 0,0 l/m 1,7 kts (1 Bft) SO 142 3,8 kts (2 Bft)
25.07.2024 13:48 29,3 C 27,2 C 50 % 1008,9 hPa 0,0 l/m 0,3 kts (0 Bft) S-SO 162 1,0 kts (1 Bft)
25.07.2024 13:47 29,2 C 27,2 C 50 % 1008,9 hPa 0,0 l/m 0,6 kts (1 Bft) O-SO 116 1,9 kts (1 Bft)
25.07.2024 13:46 29,2 C 27,2 C 50 % 1008,9 hPa 0,0 l/m 3,2 kts (2 Bft) SO 137 4,8 kts (2 Bft)
25.07.2024 13:45 29,1 C 27,2 C 53 % 1009,0 hPa 0,0 l/m 3,0 kts (2 Bft) S-SO 154 5,7 kts (2 Bft)
25.07.2024 13:44 29,1 C 27,2 C 52 % 1008,9 hPa 0,0 l/m 1,0 kts (1 Bft) SO 146 3,8 kts (2 Bft)
25.07.2024 13:43 29,0 C 27,2 C 50 % 1008,9 hPa 0,0 l/m 1,1 kts (1 Bft) S-SW 202 1,9 kts (1 Bft)
25.07.2024 13:42 29,0 C 27,2 C 51 % 1009,0 hPa 0,0 l/m 2,3 kts (1 Bft) S 187 3,8 kts (2 Bft)
25.07.2024 13:41 28,9 C 27,2 C 53 % 1009,0 hPa 0,0 l/m 1,0 kts (1 Bft) S 190 1,9 kts (1 Bft)
25.07.2024 13:40 28,9 C 27,2 C 53 % 1009,0 hPa 0,0 l/m 1,7 kts (1 Bft) S 188 4,8 kts (2 Bft)
_ Min-Zeit 05:08 01:35 13:17 14:40 - 00:01 - - 00:01
Minimum _ 18,9 C 21,1 C 46 % 1008,0 hPa - 0,0 kts (0 Bft) - - 0,0 kts (0 Bft)
_ Max-Zeit 13:12 00:00 01:42 08:19 00:00 14:17 - - 14:13
Maximum _ 29,8 C 27,8 C 91 % 1012,8 hPa 0,0 l/m 7,2 kts
O-SO (3 Bft)
- - 10,5 kts
O-SO (3 Bft)
Durchschnitt _ 22,7 C 26,8 C 74 % 1011,8 hPa #0,0 l/m 0,8 kts (1 Bft) S-SO - 1,7 kts (1 Bft)